Time;durP1;ratioP1;P1;durP2;ratioP2;P2;SDS_P1;SDS_P2;PMS_P1;PMS_P2;Temp;Humidity;BMP_temperature;BMP_pressure;BME280_temperature;BME280_humidity;BME280_pressure;Samples;Min_cycle;Max_cycle;Signal;HPM_P1;HPM_P2
2023/04/03 00:00:32;;;;;;;5.18;3.88;;;7.10;99.90;;;;;;5006319;28;20054;-79
2023/04/03 00:02:59;;;;;;;5.75;4.60;;;7.00;99.90;;;;;;5005706;28;20057;-79
2023/04/03 00:05:26;;;;;;;4.57;4.00;;;7.00;99.90;;;;;;5004814;28;20045;-79
2023/04/03 00:07:52;;;;;;;4.57;3.90;;;7.00;99.90;;;;;;5007124;28;20045;-79
2023/04/03 00:10:19;;;;;;;5.90;3.72;;;7.00;99.90;;;;;;5001098;28;20046;-79
2023/04/03 00:12:46;;;;;;;5.68;4.68;;;7.00;99.90;;;;;;5006021;28;20133;-78
2023/04/03 00:15:12;;;;;;;4.93;3.85;;;7.00;99.90;;;;;;5006382;28;20513;-79
2023/04/03 00:17:39;;;;;;;5.70;4.25;;;6.90;99.90;;;;;;5007354;28;20407;-79
2023/04/03 00:20:07;;;;;;;4.28;3.65;;;6.90;99.90;;;;;;5006946;28;20089;-79
2023/04/03 00:22:33;;;;;;;4.43;3.90;;;6.90;99.90;;;;;;5012918;28;20062;-77
2023/04/03 00:25:00;;;;;;;7.65;3.78;;;7.00;99.90;;;;;;5013850;28;20047;-77
2023/04/03 00:27:27;;;;;;;6.30;4.05;;;6.90;99.90;;;;;;5014060;28;20046;-77
2023/04/03 00:29:53;;;;;;;4.85;3.58;;;6.90;99.90;;;;;;5012828;28;20042;-77
2023/04/03 00:32:20;;;;;;;5.38;3.88;;;6.90;99.90;;;;;;5017128;28;20060;-78
2023/04/03 00:34:46;;;;;;;4.75;3.78;;;6.90;99.90;;;;;;5015480;28;20050;-77
2023/04/03 00:37:13;;;;;;;4.95;4.07;;;6.90;99.90;;;;;;5009502;28;20050;-77
2023/04/03 00:39:40;;;;;;;4.25;3.63;;;6.90;99.90;;;;;;5012247;28;20050;-78
2023/04/03 00:42:07;;;;;;;3.75;3.45;;;7.00;99.90;;;;;;5013166;28;20046;-77
2023/04/03 00:44:33;;;;;;;3.35;2.95;;;7.10;99.90;;;;;;5004334;28;20050;-78
2023/04/03 00:47:01;;;;;;;5.70;3.75;;;7.10;99.90;;;;;;5000846;28;20046;-79
2023/04/03 00:49:28;;;;;;;5.10;3.42;;;7.00;99.90;;;;;;5002831;28;20068;-78
2023/04/03 00:51:56;;;;;;;5.50;3.75;;;7.00;99.90;;;;;;5002610;28;20523;-80
2023/04/03 00:54:23;;;;;;;7.97;3.50;;;7.00;99.90;;;;;;5001742;28;20501;-79
2023/04/03 00:56:53;;;;;;;4.85;3.58;;;6.80;99.90;;;;;;5005960;28;20049;-80
2023/04/03 00:59:27;;;;;;;5.43;3.75;;;6.80;99.90;;;;;;5003725;28;20089;-78
2023/04/03 01:01:57;;;;;;;4.72;3.67;;;6.70;99.90;;;;;;5002995;28;20434;-79
2023/04/03 01:04:30;;;;;;;4.85;3.78;;;6.70;99.90;;;;;;5006390;28;20474;-79
2023/04/03 01:07:01;;;;;;;4.03;3.55;;;6.60;99.90;;;;;;5004636;28;20047;-78
2023/04/03 01:09:29;;;;;;;5.43;3.70;;;6.60;99.90;;;;;;5001201;28;20057;-79
2023/04/03 01:12:16;;;;;;;3.92;3.25;;;6.60;99.90;;;;;;5004720;28;20061;-79
2023/04/03 01:14:43;;;;;;;4.55;3.40;;;6.60;99.90;;;;;;4990423;28;20061;-80
2023/04/03 01:17:32;;;;;;;5.22;4.03;;;6.50;99.90;;;;;;5007207;28;20052;-78
2023/04/03 01:20:11;;;;;;;5.75;3.65;;;6.40;99.90;;;;;;5003228;28;20069;-77
2023/04/03 01:22:52;;;;;;;7.63;4.18;;;6.40;99.90;;;;;;5002990;28;20465;-79
2023/04/03 01:25:19;;;;;;;5.05;3.35;;;6.50;99.90;;;;;;5004766;28;20065;-78
2023/04/03 01:27:45;;;;;;;5.18;3.60;;;6.50;99.90;;;;;;5001478;28;20049;-78
2023/04/03 01:30:16;;;;;;;4.88;3.33;;;6.50;99.90;;;;;;5009622;28;20403;-78
2023/04/03 01:32:43;;;;;;;4.47;3.47;;;6.60;99.90;;;;;;5000815;28;20053;-77
2023/04/03 01:35:10;;;;;;;3.92;3.00;;;6.60;99.90;;;;;;5010172;28;20046;-79
2023/04/03 01:37:37;;;;;;;6.55;3.53;;;6.50;99.90;;;;;;5005060;28;20073;-79
2023/04/03 01:40:05;;;;;;;6.32;3.30;;;6.50;99.90;;;;;;5004551;28;20053;-79
2023/04/03 01:42:32;;;;;;;3.75;3.35;;;6.50;99.90;;;;;;5007875;28;20050;-78
2023/04/03 01:44:58;;;;;;;5.10;4.60;;;6.50;99.90;;;;;;5002357;28;20042;-79
2023/04/03 01:47:25;;;;;;;4.57;3.70;;;6.40;99.90;;;;;;5003863;28;20392;-79
2023/04/03 01:49:52;;;;;;;7.10;3.22;;;6.40;99.90;;;;;;4999415;28;20042;-79
2023/04/03 01:52:18;;;;;;;4.07;3.60;;;6.40;99.90;;;;;;5003838;28;20068;-78
2023/04/03 01:54:45;;;;;;;4.68;3.70;;;6.40;99.90;;;;;;5011008;28;20421;-79
2023/04/03 01:57:13;;;;;;;5.75;3.05;;;6.40;99.90;;;;;;5018048;28;20054;-78
2023/04/03 01:59:40;;;;;;;5.43;4.10;;;6.40;99.90;;;;;;5015048;28;20045;-79
2023/04/03 02:02:07;;;;;;;4.68;2.97;;;6.30;99.90;;;;;;5002637;28;20054;-79
2023/04/03 02:04:33;;;;;;;5.60;3.78;;;6.30;99.90;;;;;;5008999;28;20043;-78
2023/04/03 02:07:00;;;;;;;8.43;3.65;;;6.20;99.90;;;;;;5006062;28;20065;-78
2023/04/03 02:09:27;;;;;;;4.03;3.30;;;6.20;99.90;;;;;;5006531;28;20043;-78
2023/04/03 02:11:54;;;;;;;4.28;3.10;;;6.10;99.90;;;;;;5015067;28;20056;-79
2023/04/03 02:14:21;;;;;;;5.03;3.38;;;6.10;99.90;;;;;;5008748;28;20137;-79
2023/04/03 02:16:48;;;;;;;4.53;3.33;;;6.10;99.90;;;;;;5005432;28;20050;-79
2023/04/03 02:19:15;;;;;;;4.72;3.58;;;6.10;99.90;;;;;;5004339;28;20042;-78
2023/04/03 02:21:41;;;;;;;3.85;3.15;;;6.10;99.90;;;;;;4997443;28;20046;-79
2023/04/03 02:24:08;;;;;;;4.78;3.03;;;6.00;99.90;;;;;;5005705;28;20046;-80
2023/04/03 02:26:35;;;;;;;5.28;3.22;;;6.00;99.90;;;;;;5001434;28;20041;-78
2023/04/03 02:29:02;;;;;;;5.10;3.20;;;5.90;99.90;;;;;;5007670;28;20572;-79
2023/04/03 02:31:29;;;;;;;5.63;3.70;;;5.90;99.90;;;;;;4999760;28;20054;-79
2023/04/03 02:33:56;;;;;;;4.97;3.13;;;5.90;99.90;;;;;;5002375;28;20112;-80
2023/04/03 02:36:22;;;;;;;6.82;3.63;;;5.90;99.90;;;;;;5005263;28;20069;-78
2023/04/03 02:38:49;;;;;;;3.95;3.10;;;5.90;99.90;;;;;;5007568;28;20042;-78
2023/04/03 02:41:16;;;;;;;4.45;3.10;;;5.90;99.90;;;;;;5013199;28;20046;-79
2023/04/03 02:43:43;;;;;;;3.95;3.20;;;6.00;99.90;;;;;;5002228;28;20045;-79
2023/04/03 02:46:09;;;;;;;3.60;3.20;;;5.90;99.90;;;;;;5008655;28;20042;-79
2023/04/03 02:48:36;;;;;;;4.72;3.22;;;6.00;99.90;;;;;;5001240;28;20053;-78
2023/04/03 02:51:03;;;;;;;5.32;3.35;;;6.00;99.90;;;;;;5010035;28;20128;-79
2023/04/03 02:53:30;;;;;;;5.13;3.42;;;6.00;99.90;;;;;;4997412;28;20050;-79
2023/04/03 02:55:56;;;;;;;6.38;3.22;;;6.10;99.90;;;;;;5001798;28;20073;-79
2023/04/03 02:58:23;;;;;;;3.78;3.20;;;6.20;99.90;;;;;;5005918;28;20058;-78
2023/04/03 03:00:50;;;;;;;5.43;3.40;;;6.10;99.90;;;;;;4997253;28;20042;-79
2023/04/03 03:03:16;;;;;;;4.28;3.50;;;5.90;99.90;;;;;;5005739;28;20042;-79
2023/04/03 03:05:43;;;;;;;5.63;3.15;;;5.90;99.90;;;;;;5003330;28;20130;-80
2023/04/03 03:08:10;;;;;;;3.30;2.95;;;5.90;99.90;;;;;;5003704;28;20042;-79
2023/04/03 03:10:36;;;;;;;5.05;3.28;;;5.90;99.90;;;;;;5006077;28;20046;-79
2023/04/03 03:13:04;;;;;;;5.03;3.25;;;6.00;99.90;;;;;;5004833;28;20057;-79
2023/04/03 03:15:31;;;;;;;5.45;3.70;;;6.00;99.90;;;;;;5030452;28;20072;-80
2023/04/03 03:17:57;;;;;;;6.22;3.42;;;6.00;99.90;;;;;;5028183;28;20070;-79
2023/04/03 03:20:24;;;;;;;4.00;3.28;;;6.10;99.90;;;;;;5029758;28;20039;-80
2023/04/03 03:22:51;;;;;;;4.80;3.17;;;6.10;99.90;;;;;;5025874;28;20117;-80
2023/04/03 03:25:17;;;;;;;3.38;2.72;;;6.20;99.90;;;;;;5023004;28;20405;-79
2023/04/03 03:27:45;;;;;;;6.63;2.97;;;6.20;99.90;;;;;;5002279;28;20050;-78
2023/04/03 03:30:12;;;;;;;4.50;2.90;;;6.20;99.90;;;;;;4999855;28;20137;-78
2023/04/03 03:32:39;;;;;;;3.83;2.92;;;6.10;99.90;;;;;;4993301;28;20062;-77
2023/04/03 03:35:06;;;;;;;4.72;2.70;;;6.20;99.90;;;;;;4998655;28;20046;-79
2023/04/03 03:37:33;;;;;;;4.65;2.90;;;6.30;99.90;;;;;;5000436;28;20047;-78
2023/04/03 03:40:00;;;;;;;3.85;2.78;;;6.30;99.90;;;;;;5000659;28;20048;-78
2023/04/03 03:42:26;;;;;;;4.93;2.75;;;6.20;99.90;;;;;;5001030;28;20129;-78
2023/04/03 03:44:53;;;;;;;3.30;2.38;;;6.20;99.90;;;;;;5006035;28;20043;-77
2023/04/03 03:47:20;;;;;;;3.67;2.70;;;6.10;99.90;;;;;;4997855;28;20060;-79
2023/04/03 03:49:46;;;;;;;4.80;2.67;;;6.10;99.90;;;;;;4995169;28;20125;-78
2023/04/03 03:52:13;;;;;;;4.20;2.70;;;6.20;99.90;;;;;;4997684;28;20129;-79
2023/04/03 03:54:40;;;;;;;5.00;2.78;;;6.10;99.90;;;;;;4999435;28;20053;-78
2023/04/03 03:57:06;;;;;;;4.32;2.95;;;6.10;99.90;;;;;;5004750;28;20050;-77
2023/04/03 03:59:33;;;;;;;7.70;2.22;;;6.20;99.90;;;;;;5000932;28;20057;-79
2023/04/03 04:02:00;;;;;;;4.45;2.42;;;6.20;99.90;;;;;;5003456;28;20065;-78
2023/04/03 04:04:27;;;;;;;4.20;2.97;;;6.20;99.90;;;;;;4996553;28;20050;-78
2023/04/03 04:06:54;;;;;;;4.13;2.40;;;6.20;99.90;;;;;;5010160;28;20050;-78
2023/04/03 04:09:21;;;;;;;4.35;2.50;;;6.20;99.90;;;;;;4999178;28;20051;-78
2023/04/03 04:11:48;;;;;;;3.10;2.80;;;6.20;99.90;;;;;;4999439;28;20142;-78
2023/04/03 04:14:15;;;;;;;5.18;2.67;;;6.30;99.90;;;;;;5003354;28;20133;-79
2023/04/03 04:16:41;;;;;;;4.25;2.60;;;6.30;99.90;;;;;;4995750;28;20072;-79
2023/04/03 04:19:08;;;;;;;3.17;2.55;;;6.40;99.90;;;;;;5000348;28;20077;-78
2023/04/03 04:21:35;;;;;;;5.15;2.78;;;6.40;99.90;;;;;;5001481;28;20654;-78
2023/04/03 04:24:02;;;;;;;5.57;3.13;;;6.50;99.90;;;;;;4998803;28;20129;-77
2023/04/03 04:26:29;;;;;;;5.25;2.80;;;6.50;99.90;;;;;;5002272;28;20498;-77
2023/04/03 04:28:56;;;;;;;5.80;2.85;;;6.50;99.90;;;;;;4995903;28;20492;-77
2023/04/03 04:31:22;;;;;;;4.53;3.05;;;6.50;99.90;;;;;;5008239;28;20050;-79
2023/04/03 04:33:49;;;;;;;5.00;3.10;;;6.50;99.90;;;;;;4995587;28;20418;-80
2023/04/03 04:36:16;;;;;;;3.40;2.92;;;6.40;99.90;;;;;;5008416;28;20068;-78
2023/04/03 04:38:43;;;;;;;3.63;3.28;;;6.40;99.90;;;;;;4999084;28;20461;-78
2023/04/03 04:41:10;;;;;;;3.65;3.05;;;6.40;99.90;;;;;;5005791;28;20050;-78
2023/04/03 04:43:37;;;;;;;4.35;3.05;;;6.10;99.90;;;;;;5005978;28;20058;-77
2023/04/03 04:46:06;;;;;;;4.45;3.05;;;6.00;99.90;;;;;;5001495;28;20045;-77
2023/04/03 04:48:33;;;;;;;4.30;3.25;;;6.00;99.90;;;;;;5006417;28;20042;-78
2023/04/03 04:51:01;;;;;;;4.15;3.13;;;6.00;99.90;;;;;;5009206;28;20045;-78
2023/04/03 04:53:28;;;;;;;4.75;2.90;;;5.90;99.90;;;;;;5005984;28;20061;-79
2023/04/03 04:55:54;;;;;;;4.90;3.75;;;5.90;99.90;;;;;;5008299;28;20060;-78
2023/04/03 04:58:21;;;;;;;5.78;3.00;;;5.80;99.90;;;;;;5008956;28;20447;-77
2023/04/03 05:00:48;;;;;;;4.63;3.30;;;5.80;99.90;;;;;;5002768;28;20422;-78
2023/04/03 05:03:15;;;;;;;4.72;2.90;;;5.90;99.90;;;;;;5006391;28;20057;-78
2023/04/03 05:05:41;;;;;;;4.25;3.20;;;5.90;99.90;;;;;;5008049;28;20046;-77
2023/04/03 05:08:08;;;;;;;2.92;2.63;;;5.90;99.90;;;;;;5001937;28;20089;-79
2023/04/03 05:10:35;;;;;;;5.57;3.03;;;5.80;99.90;;;;;;5001709;28;20043;-79
2023/04/03 05:13:01;;;;;;;4.43;3.20;;;5.80;99.90;;;;;;5001088;28;20134;-79
2023/04/03 05:15:28;;;;;;;3.67;2.70;;;5.80;99.90;;;;;;5006724;28;20060;-80
2023/04/03 05:17:55;;;;;;;5.13;3.10;;;5.70;99.90;;;;;;5006067;28;20050;-80
2023/04/03 05:20:21;;;;;;;6.78;3.28;;;5.70;99.90;;;;;;5011449;28;20100;-79
2023/04/03 05:22:48;;;;;;;4.38;3.20;;;5.70;99.90;;;;;;5006639;28;20727;-77
2023/04/03 05:25:15;;;;;;;4.25;3.40;;;5.70;99.90;;;;;;5003785;28;20145;-77
2023/04/03 05:27:41;;;;;;;6.03;3.40;;;5.70;99.90;;;;;;5006766;28;20417;-77
2023/04/03 05:30:08;;;;;;;4.82;3.22;;;5.60;99.90;;;;;;5004182;28;20046;-78
2023/04/03 05:32:35;;;;;;;7.57;3.33;;;5.60;99.90;;;;;;4997315;28;20050;-77
2023/04/03 05:35:02;;;;;;;4.82;3.58;;;5.60;99.90;;;;;;5000950;28;20046;-78
2023/04/03 05:37:29;;;;;;;4.32;3.40;;;5.70;99.90;;;;;;5003866;28;20050;-79
2023/04/03 05:39:56;;;;;;;4.75;4.25;;;5.80;99.90;;;;;;5012178;28;20085;-77
2023/04/03 05:42:22;;;;;;;4.88;3.47;;;5.80;99.90;;;;;;5009336;28;20049;-77
2023/04/03 05:44:50;;;;;;;5.90;3.75;;;5.80;99.90;;;;;;5000758;28;20050;-78
2023/04/03 05:47:17;;;;;;;4.50;3.45;;;5.80;99.90;;;;;;5000956;28;20049;-77
2023/04/03 05:49:45;;;;;;;5.45;4.00;;;5.90;99.90;;;;;;5002533;28;20042;-78
2023/04/03 05:52:22;;;;;;;4.28;3.25;;;6.00;99.90;;;;;;5006202;28;20085;-78
2023/04/03 05:54:48;;;;;;;4.65;3.70;;;6.10;99.90;;;;;;4999023;28;20053;-76
2023/04/03 05:57:16;;;;;;;5.93;4.32;;;6.10;99.90;;;;;;5000371;28;20046;-78
2023/04/03 05:59:44;;;;;;;4.70;4.03;;;6.20;99.90;;;;;;5007085;28;20077;-77
2023/04/03 06:02:17;;;;;;;5.25;3.35;;;6.20;99.90;;;;;;5004878;28;20056;-77
2023/04/03 06:04:43;;;;;;;5.45;3.65;;;6.10;99.90;;;;;;5006008;28;20541;-77
2023/04/03 06:07:17;;;;;;;7.20;3.35;;;6.10;99.90;;;;;;5003017;28;20045;-78
2023/04/03 06:09:44;;;;;;;5.07;3.83;;;6.10;99.90;;;;;;5006395;28;20046;-78
2023/04/03 06:12:11;;;;;;;5.15;4.20;;;6.00;99.90;;;;;;5011282;28;20042;-77
2023/04/03 06:14:37;;;;;;;5.65;3.92;;;6.00;99.90;;;;;;4999589;28;20042;-78
2023/04/03 06:17:04;;;;;;;5.63;3.92;;;6.10;99.90;;;;;;5013539;28;20048;-78
2023/04/03 06:19:31;;;;;;;6.18;4.45;;;6.10;99.90;;;;;;5003197;28;20086;-78
2023/04/03 06:21:58;;;;;;;8.57;4.72;;;6.10;99.90;;;;;;5010604;28;20049;-79
2023/04/03 06:24:25;;;;;;;4.80;4.10;;;6.20;99.90;;;;;;5005708;28;20070;-78
2023/04/03 06:26:52;;;;;;;4.75;4.22;;;6.20;99.90;;;;;;5005607;28;20458;-79
2023/04/03 06:29:19;;;;;;;5.35;4.10;;;6.20;99.90;;;;;;5010022;28;20042;-79
2023/04/03 06:31:47;;;;;;;5.97;3.95;;;6.30;99.90;;;;;;5014762;28;20053;-78
2023/04/03 06:34:13;;;;;;;4.47;3.53;;;6.20;99.90;;;;;;5003529;28;20056;-78
2023/04/03 06:36:40;;;;;;;4.75;4.10;;;6.20;99.90;;;;;;5005469;28;20042;-79
2023/04/03 06:39:12;;;;;;;6.60;3.88;;;6.10;99.90;;;;;;5008081;28;20046;-79
2023/04/03 06:41:39;;;;;;;5.10;4.18;;;6.10;99.90;;;;;;5015918;28;20213;-78
2023/04/03 06:44:06;;;;;;;6.82;4.38;;;6.10;99.90;;;;;;5010218;28;20056;-79
2023/04/03 06:46:32;;;;;;;7.25;4.55;;;6.20;99.90;;;;;;5011080;28;20046;-79
2023/04/03 06:48:59;;;;;;;6.97;3.75;;;6.20;99.90;;;;;;5008450;28;20049;-78
2023/04/03 06:51:28;;;;;;;7.95;4.00;;;6.10;99.90;;;;;;5006857;28;20049;-79
2023/04/03 06:53:58;;;;;;;6.18;4.50;;;6.00;99.90;;;;;;5001990;28;20056;-79
2023/04/03 06:56:26;;;;;;;5.90;4.05;;;6.20;99.90;;;;;;5007196;28;20049;-79
2023/04/03 06:58:54;;;;;;;5.65;3.80;;;6.20;99.90;;;;;;5004832;28;20046;-79
2023/04/03 07:01:21;;;;;;;4.55;3.67;;;6.10;99.90;;;;;;5003968;28;20054;-79
2023/04/03 07:03:48;;;;;;;5.32;3.70;;;6.00;99.90;;;;;;5001953;28;20053;-77
2023/04/03 07:06:16;;;;;;;6.70;4.13;;;6.10;99.90;;;;;;5004211;28;20540;-79
2023/04/03 07:08:44;;;;;;;5.15;3.33;;;6.10;99.90;;;;;;5006253;28;20049;-79
2023/04/03 07:11:12;;;;;;;6.70;4.00;;;6.20;99.90;;;;;;5005163;28;20450;-80
2023/04/03 07:13:38;;;;;;;5.78;3.47;;;6.30;99.90;;;;;;5006615;28;20413;-78
2023/04/03 07:16:06;;;;;;;4.38;3.22;;;6.40;99.90;;;;;;5009140;28;20125;-78
2023/04/03 07:18:33;;;;;;;6.82;3.53;;;6.40;99.90;;;;;;5002677;28;20049;-77
2023/04/03 07:21:00;;;;;;;5.28;3.65;;;6.40;99.90;;;;;;5002440;28;20052;-78
2023/04/03 07:23:27;;;;;;;5.22;3.67;;;6.50;99.90;;;;;;5003545;28;20114;-79
2023/04/03 07:25:54;;;;;;;6.88;3.45;;;6.50;99.90;;;;;;5006690;28;20114;-79
2023/04/03 07:28:25;;;;;;;6.13;3.58;;;6.60;99.90;;;;;;5004239;28;20078;-78
2023/04/03 07:30:58;;;;;;;4.60;3.50;;;6.60;99.90;;;;;;4993988;28;20042;-78
2023/04/03 07:33:25;;;;;;;4.22;3.40;;;6.60;99.90;;;;;;5006846;28;20049;-79
2023/04/03 07:35:52;;;;;;;7.78;3.67;;;6.60;99.90;;;;;;5021039;28;20133;-79
2023/04/03 07:38:18;;;;;;;8.10;4.00;;;6.70;99.90;;;;;;5004864;28;20195;-78
2023/04/03 07:40:50;;;;;;;5.38;3.97;;;6.70;99.90;;;;;;5005818;28;20048;-78
2023/04/03 07:43:20;;;;;;;5.15;3.25;;;6.80;99.90;;;;;;4997656;28;20042;-79
2023/04/03 07:45:51;;;;;;;6.68;4.82;;;6.70;99.90;;;;;;5007972;28;20424;-78
2023/04/03 07:48:20;;;;;;;5.93;4.03;;;6.80;99.90;;;;;;4999927;28;20142;-78
2023/04/03 07:50:47;;;;;;;5.78;3.80;;;6.90;99.90;;;;;;5008432;28;20048;-79
2023/04/03 07:53:14;;;;;;;5.53;3.40;;;6.90;99.90;;;;;;5004335;28;20140;-78
2023/04/03 07:55:44;;;;;;;5.50;3.72;;;6.90;99.90;;;;;;5008023;28;20057;-79
2023/04/03 07:58:14;;;;;;;5.45;4.25;;;7.00;99.90;;;;;;5002517;28;20046;-78
2023/04/03 08:00:41;;;;;;;6.85;4.35;;;7.00;99.90;;;;;;5008808;28;20502;-79
2023/04/03 08:03:10;;;;;;;6.05;3.85;;;6.90;99.90;;;;;;5005000;28;20080;-79
2023/04/03 08:05:41;;;;;;;8.48;4.13;;;6.90;99.90;;;;;;4995999;28;20046;-79
2023/04/03 08:08:08;;;;;;;5.25;3.88;;;7.00;99.90;;;;;;4996276;28;20085;-79
2023/04/03 08:10:36;;;;;;;5.78;3.85;;;7.00;99.90;;;;;;5002714;28;20054;-78
2023/04/03 08:13:03;;;;;;;5.22;3.80;;;7.10;99.90;;;;;;5000734;28;20042;-78
2023/04/03 08:15:30;;;;;;;5.80;4.13;;;7.30;99.90;;;;;;5000745;28;20129;-79
2023/04/03 08:17:58;;;;;;;5.78;3.83;;;7.40;99.90;;;;;;5005426;28;20084;-79
2023/04/03 08:20:25;;;;;;;5.22;3.58;;;7.50;99.90;;;;;;5004805;28;20050;-79
2023/04/03 08:22:52;;;;;;;6.45;3.70;;;7.60;99.90;;;;;;4988100;28;20050;-78
2023/04/03 08:25:19;;;;;;;5.50;3.85;;;7.80;99.90;;;;;;4996116;28;20050;-79
2023/04/03 08:27:46;;;;;;;4.95;3.40;;;8.00;99.90;;;;;;4994394;28;20842;-79
2023/04/03 08:30:13;;;;;;;5.28;3.50;;;8.20;99.90;;;;;;5005575;28;20052;-78
2023/04/03 08:32:44;;;;;;;4.25;3.22;;;8.30;99.90;;;;;;5021676;28;20041;-79
2023/04/03 08:35:11;;;;;;;4.97;3.60;;;8.50;99.90;;;;;;5029039;28;20030;-79
2023/04/03 08:37:39;;;;;;;4.45;3.47;;;8.70;99.90;;;;;;5017328;28;20038;-79
2023/04/03 08:40:14;;;;;;;4.05;3.50;;;8.80;99.90;;;;;;5028132;28;20068;-79
2023/04/03 08:42:56;;;;;;;4.82;3.33;;;9.00;99.90;;;;;;5026123;28;20053;-79
2023/04/03 08:45:43;;;;;;;3.45;2.83;;;9.10;99.90;;;;;;5011896;28;20058;-79
2023/04/03 08:48:26;;;;;;;3.65;3.10;;;9.30;99.90;;;;;;5004990;28;20053;-78
2023/04/03 08:50:57;;;;;;;5.93;3.63;;;9.40;99.90;;;;;;5006412;28;20053;-79
2023/04/03 08:53:32;;;;;;;5.32;4.30;;;9.50;99.90;;;;;;5001762;28;20070;-78
2023/04/03 08:56:04;;;;;;;4.97;3.42;;;9.60;99.90;;;;;;5003861;28;20097;-78
2023/04/03 08:58:50;;;;;;;4.38;3.72;;;9.70;99.90;;;;;;5008201;28;20501;-78
2023/04/03 09:01:21;;;;;;;6.78;3.20;;;9.80;99.90;;;;;;4992680;28;20043;-78
2023/04/03 09:03:48;;;;;;;6.43;3.08;;;9.80;99.90;;;;;;5006954;28;20116;-79
2023/04/03 09:06:15;;;;;;;5.22;3.38;;;9.80;99.90;;;;;;4993756;28;20391;-78
2023/04/03 09:09:12;;;;;;;3.22;2.72;;;9.80;99.90;;;;;;4989347;28;20090;-79
2023/04/03 09:12:04;;;;;;;4.60;3.05;;;9.80;99.90;;;;;;5000231;28;20494;-78
2023/04/03 09:14:41;;;;;;;5.15;3.67;;;9.80;99.90;;;;;;4992625;28;20050;-78
2023/04/03 09:17:39;;;;;;;4.28;3.22;;;9.90;99.90;;;;;;5004487;28;20055;-79
2023/04/03 09:20:16;;;;;;;3.08;2.70;;;9.90;99.90;;;;;;4990691;28;20438;-78
2023/04/03 09:22:48;;;;;;;3.33;3.03;;;10.10;99.90;;;;;;5004479;28;20305;-78
2023/04/03 09:25:48;;;;;;;3.08;2.53;;;10.10;99.90;;;;;;5001292;28;20567;-78
2023/04/03 09:28:15;;;;;;;2.92;2.38;;;10.10;99.90;;;;;;4996959;28;20491;-79
2023/04/03 09:30:42;;;;;;;3.72;2.85;;;10.20;99.90;;;;;;5000038;28;20054;-78
2023/04/03 09:33:11;;;;;;;4.47;2.55;;;10.20;99.90;;;;;;5010990;28;20056;-77
2023/04/03 09:35:41;;;;;;;4.43;2.28;;;10.30;99.90;;;;;;5007099;28;20439;-79
2023/04/03 09:38:17;;;;;;;2.88;1.50;;;10.30;99.90;;;;;;4998133;28;20097;-79
2023/04/03 09:41:11;;;;;;;1.70;1.45;;;9.90;99.90;;;;;;5002769;28;20052;-78
2023/04/03 09:43:38;;;;;;;1.80;1.50;;;9.70;99.90;;;;;;4997821;28;20118;-79
2023/04/03 09:46:23;;;;;;;1.80;1.30;;;9.40;99.90;;;;;;5002752;28;20538;-80
2023/04/03 09:48:55;;;;;;;2.17;1.52;;;9.20;99.90;;;;;;4992640;28;20077;-79
2023/04/03 09:51:34;;;;;;;2.40;1.80;;;9.10;99.90;;;;;;4997274;28;20047;-78
2023/04/03 09:54:37;;;;;;;4.00;2.00;;;9.10;99.90;;;;;;4998878;28;20077;-78
2023/04/03 09:57:12;;;;;;;1.90;1.63;;;9.10;99.90;;;;;;5003556;28;20046;-79
2023/04/03 09:59:47;;;;;;;1.63;1.52;;;9.00;99.90;;;;;;5002465;28;20100;-79
2023/04/03 10:02:42;;;;;;;2.13;1.75;;;8.90;99.90;;;;;;4994345;28;20054;-78
2023/04/03 10:05:36;;;;;;;5.18;1.75;;;9.00;99.90;;;;;;5016529;28;20445;-79
2023/04/03 10:08:10;;;;;;;1.95;1.70;;;9.00;99.90;;;;;;4997330;28;20042;-77
2023/04/03 10:10:38;;;;;;;1.55;1.45;;;9.00;99.90;;;;;;4994010;28;20060;-80
2023/04/03 10:13:13;;;;;;;2.25;1.52;;;9.10;99.90;;;;;;5002735;28;20042;-79
2023/04/03 10:16:03;;;;;;;2.33;2.00;;;9.10;99.90;;;;;;4997246;28;20047;-80
2023/04/03 10:18:49;;;;;;;2.03;1.83;;;9.00;99.90;;;;;;4999142;28;20046;-79
2023/04/03 10:21:43;;;;;;;2.58;1.70;;;9.00;99.90;;;;;;4997353;28;20038;-80
2023/04/03 10:24:13;;;;;;;1.58;1.45;;;8.90;99.90;;;;;;5003920;28;20047;-79
2023/04/03 10:26:51;;;;;;;;;;;8.70;99.90;;;;;;4998853;28;20501;-78
2023/04/03 10:29:24;;;;;;;2.30;1.92;;;8.70;99.90;;;;;;5002098;28;20016;-79
2023/04/03 10:32:16;;;;;;;1.83;1.70;;;8.60;99.90;;;;;;4995893;28;20043;-79
2023/04/03 10:34:44;;;;;;;2.53;1.95;;;8.50;99.90;;;;;;5003441;28;20046;-80
2023/04/03 10:37:40;;;;;;;2.78;1.80;;;8.60;99.90;;;;;;5004572;28;20073;-79
2023/04/03 10:40:50;;;;;;;2.40;2.20;;;8.70;99.90;;;;;;5003046;28;20060;-79
2023/04/03 10:44:03;;;;;;;4.10;1.52;;;8.80;99.90;;;;;;5001150;28;20054;-78
2023/04/03 10:46:38;;;;;;;2.95;1.45;;;9.00;99.90;;;;;;4994612;28;20048;-79
2023/04/03 10:49:19;;;;;;;1.70;1.60;;;9.20;99.90;;;;;;4990168;28;20065;-79
2023/04/03 10:51:55;;;;;;;1.92;1.60;;;9.30;99.90;;;;;;5008663;28;20045;-79
2023/04/03 10:54:30;;;;;;;1.45;1.35;;;9.40;99.90;;;;;;4997581;28;20536;-78
2023/04/03 10:57:02;;;;;;;2.38;1.42;;;9.30;99.90;;;;;;5003651;28;20088;-79
2023/04/03 10:59:46;;;;;;;2.20;1.60;;;9.50;99.90;;;;;;4997996;28;20501;-78
2023/04/03 11:02:27;;;;;;;3.38;1.77;;;9.40;99.90;;;;;;5003349;28;20060;-79
2023/04/03 11:05:20;;;;;;;2.42;1.90;;;9.40;99.90;;;;;;5004135;28;20469;-79
2023/04/03 11:07:48;;;;;;;;;;;9.40;99.90;;;;;;4996369;28;20042;-79
2023/04/03 11:10:30;;;;;;;2.30;1.90;;;9.50;99.90;;;;;;4999180;28;19926;-79
2023/04/03 11:13:08;;;;;;;1.98;1.65;;;9.50;99.90;;;;;;4996571;28;20766;-79
2023/04/03 11:15:35;;;;;;;2.60;1.70;;;9.50;99.90;;;;;;5007384;28;20418;-78
2023/04/03 11:18:09;;;;;;;1.73;1.60;;;9.50;99.90;;;;;;4997131;28;20521;-79
2023/04/03 11:20:40;;;;;;;2.08;1.50;;;9.60;99.90;;;;;;5003044;28;20068;-80
2023/04/03 11:23:27;;;;;;;2.35;1.45;;;9.80;99.90;;;;;;5000970;28;20058;-80
2023/04/03 11:26:12;;;;;;;2.58;1.58;;;10.00;99.90;;;;;;5006156;28;20399;-78
2023/04/03 11:28:40;;;;;;;2.03;1.83;;;10.30;99.90;;;;;;4997220;28;20057;-78
2023/04/03 11:31:37;;;;;;;2.55;1.20;;;10.50;99.90;;;;;;5004915;28;20521;-80
2023/04/03 11:34:04;;;;;;;2.85;1.50;;;10.70;99.90;;;;;;4996678;28;20070;-79
2023/04/03 11:36:38;;;;;;;2.00;1.67;;;10.90;99.90;;;;;;5003031;28;20088;-79
2023/04/03 11:39:30;;;;;;;2.83;1.40;;;11.00;99.90;;;;;;5000369;28;20100;-78
2023/04/03 11:42:13;;;;;;;1.27;1.13;;;11.20;99.90;;;;;;4995287;28;20052;-79
2023/04/03 11:44:41;;;;;;;2.80;1.70;;;11.30;99.90;;;;;;5006346;28;20043;-79
2023/04/03 11:47:12;;;;;;;1.98;1.30;;;11.20;99.90;;;;;;4996264;28;20038;-79
2023/04/03 11:49:51;;;;;;;3.05;1.40;;;11.30;99.90;;;;;;4997298;28;20054;-79
2023/04/03 11:52:43;;;;;;;2.15;1.45;;;11.40;99.90;;;;;;4995465;28;20050;-79
2023/04/03 11:55:20;;;;;;;3.38;1.60;;;11.40;99.90;;;;;;4992920;28;20076;-79
2023/04/03 11:58:05;;;;;;;1.27;1.13;;;11.10;99.90;;;;;;5006987;28;20050;-78
2023/04/03 12:00:43;;;;;;;2.63;1.33;;;10.80;99.90;;;;;;5004286;28;20536;-77
2023/04/03 12:05:52;;;;;;;2.20;1.30;;;10.40;99.90;;;;;;4999753;28;20050;-79
2023/04/03 12:08:29;;;;;;;1.15;1.02;;;10.20;99.90;;;;;;5007757;28;20045;-79
2023/04/03 12:11:08;;;;;;;1.58;1.33;;;10.00;99.90;;;;;;5001392;28;20101;-77
2023/04/03 12:13:37;;;;;;;1.50;1.30;;;9.90;99.90;;;;;;5013609;28;20070;-77
2023/04/03 12:16:06;;;;;;;2.08;1.45;;;9.70;99.90;;;;;;5009844;28;20046;-77
2023/04/03 12:18:44;;;;;;;2.40;1.42;;;9.60;99.90;;;;;;5003503;28;20050;-78
2023/04/03 12:21:13;;;;;;;3.28;1.60;;;9.70;99.90;;;;;;5005320;28;20042;-78
2023/04/03 12:24:04;;;;;;;1.88;1.33;;;9.60;99.90;;;;;;4997437;28;20038;-77
2023/04/03 12:26:47;;;;;;;2.58;1.13;;;9.40;99.90;;;;;;4996575;28;20042;-76
2023/04/03 12:29:25;;;;;;;1.15;1.05;;;9.30;99.90;;;;;;4985725;28;20697;-76
2023/04/03 12:32:01;;;;;;;2.35;1.38;;;9.30;99.90;;;;;;5002031;28;20477;-77
2023/04/03 12:34:47;;;;;;;1.83;1.35;;;9.10;99.90;;;;;;4996938;28;20054;-78
2023/04/03 12:37:38;;;;;;;3.67;1.60;;;9.00;99.90;;;;;;4990615;28;20069;-77
2023/04/03 12:40:05;;;;;;;;;;;9.00;99.90;;;;;;4995897;28;20590;-76
2023/04/03 12:42:32;;;;;;;1.85;1.40;;;9.00;99.90;;;;;;4993347;28;19922;-76
2023/04/03 12:45:06;;;;;;;1.90;1.55;;;9.00;99.90;;;;;;5000518;28;20051;-80
2023/04/03 12:47:37;;;;;;;1.65;1.38;;;9.10;99.90;;;;;;5003463;28;20050;-79
2023/04/03 12:50:17;;;;;;;1.92;1.48;;;9.10;99.90;;;;;;4999581;28;20054;-79
2023/04/03 12:52:56;;;;;;;1.83;1.30;;;9.20;99.90;;;;;;5005636;28;20133;-79
2023/04/03 12:55:23;;;;;;;2.17;1.55;;;9.20;99.90;;;;;;5001933;28;20050;-78
2023/04/03 12:57:49;;;;;;;1.77;1.55;;;9.20;99.90;;;;;;4998705;28;20046;-78
2023/04/03 13:00:28;;;;;;;1.95;1.50;;;9.10;99.90;;;;;;5003414;28;20050;-78
2023/04/03 13:02:55;;;;;;;3.92;1.70;;;9.20;99.90;;;;;;5021422;28;20052;-79
2023/04/03 13:05:23;;;;;;;2.60;1.45;;;9.40;99.90;;;;;;5007623;28;20641;-78
2023/04/03 13:07:59;;;;;;;3.03;1.77;;;9.40;99.90;;;;;;5002643;28;20042;-79
2023/04/03 13:10:25;;;;;;;2.85;1.65;;;9.40;99.90;;;;;;5015281;28;20101;-77
2023/04/03 13:12:58;;;;;;;5.78;1.40;;;9.40;99.90;;;;;;5004521;28;20399;-77
2023/04/03 13:15:39;;;;;;;1.83;1.60;;;9.30;99.90;;;;;;5004395;28;20065;-77
2023/04/03 13:18:20;;;;;;;2.50;1.83;;;9.20;99.90;;;;;;5004026;28;20050;-77
2023/04/03 13:20:48;;;;;;;4.00;1.52;;;9.30;99.90;;;;;;4996403;28;20050;-77